Time;durP1;ratioP1;P1;durP2;ratioP2;P2;SDS_P1;SDS_P2;PMS_P1;PMS_P2;Temp;Humidity;BMP_temperature;BMP_pressure;BME280_temperature;BME280_humidity;BME280_pressure;Samples;Min_cycle;Max_cycle;Signal;HPM_P1;HPM_P2
2023/08/18 00:01:16;;;;;;;7.35;6.40;;;;;;;17.41;95.62;101650.56;5027445;28;20049;-72
2023/08/18 00:03:43;;;;;;;7.20;6.32;;;;;;;17.38;95.73;101650.75;5026955;28;20049;-72
2023/08/18 00:06:11;;;;;;;7.15;6.45;;;;;;;17.35;95.91;101651.72;5028060;28;20528;-72
2023/08/18 00:08:39;;;;;;;8.95;6.30;;;;;;;17.35;96.13;101645.53;5026160;28;20130;-71
2023/08/18 00:11:06;;;;;;;7.97;6.45;;;;;;;17.33;95.78;101648.28;5026620;28;20120;-71
2023/08/18 00:13:34;;;;;;;8.43;6.80;;;;;;;17.30;96.22;101648.41;5026153;28;20045;-72
2023/08/18 00:16:01;;;;;;;7.55;6.63;;;;;;;17.34;95.54;101650.03;5026316;28;20045;-71
2023/08/18 00:18:29;;;;;;;7.70;6.28;;;;;;;17.32;95.47;101645.66;5025743;28;20182;-71
2023/08/18 00:20:56;;;;;;;8.95;6.88;;;;;;;17.29;95.90;101645.84;5026140;28;20087;-72
2023/08/18 00:23:23;;;;;;;6.95;6.25;;;;;;;17.28;96.13;101646.75;5025036;28;20107;-72
2023/08/18 00:25:50;;;;;;;7.65;6.65;;;;;;;17.25;95.99;101639.75;5025726;28;20053;-72
2023/08/18 00:28:17;;;;;;;7.50;6.70;;;;;;;17.29;95.85;101648.50;5025903;28;20041;-71
2023/08/18 00:30:45;;;;;;;9.23;7.45;;;;;;;17.25;96.08;101647.75;5026360;28;20293;-72
2023/08/18 00:33:12;;;;;;;9.13;7.05;;;;;;;17.22;96.39;101648.75;5007660;28;20060;-72
2023/08/18 00:35:39;;;;;;;8.55;6.82;;;;;;;17.23;96.59;101644.31;5025871;28;20057;-72
2023/08/18 00:38:06;;;;;;;9.25;6.60;;;;;;;17.25;96.38;101650.41;5025018;28;20042;-72
2023/08/18 00:40:33;;;;;;;8.38;6.88;;;;;;;17.22;96.07;101654.09;5016200;28;20068;-72
2023/08/18 00:43:00;;;;;;;7.97;7.00;;;;;;;17.20;97.14;101647.97;5006094;28;20125;-72
2023/08/18 00:45:28;;;;;;;10.20;7.32;;;;;;;17.21;96.85;101655.03;5003880;28;20049;-72
2023/08/18 00:47:56;;;;;;;8.48;7.55;;;;;;;17.23;96.31;101652.31;5024063;28;20063;-72
2023/08/18 00:50:25;;;;;;;7.40;6.65;;;;;;;17.20;96.83;101649.78;5025941;28;20056;-71
2023/08/18 00:52:58;;;;;;;8.55;7.65;;;;;;;17.18;96.64;101648.97;5006972;28;20049;-72
2023/08/18 00:55:32;;;;;;;9.05;8.07;;;;;;;17.17;96.65;101641.91;5007898;28;20517;-71
2023/08/18 00:58:01;;;;;;;8.85;7.70;;;;;;;17.11;96.73;101635.06;5008638;28;20037;-71
2023/08/18 01:00:29;;;;;;;11.10;7.57;;;;;;;17.10;96.97;101641.31;5024562;28;20068;-71
2023/08/18 01:02:57;;;;;;;9.48;8.38;;;;;;;17.07;97.17;101631.66;5007658;28;20045;-72
2023/08/18 01:05:24;;;;;;;10.25;7.97;;;;;;;17.07;97.18;101630.81;5007249;28;20066;-71
2023/08/18 01:07:51;;;;;;;10.48;8.55;;;;;;;17.03;96.96;101638.09;5024930;28;20084;-71
2023/08/18 01:10:20;;;;;;;9.57;8.57;;;;;;;17.00;97.38;101626.69;5007535;28;20045;-71
2023/08/18 01:13:12;;;;;;;10.55;9.10;;;;;;;17.01;97.22;101620.41;5024741;28;20064;-71
2023/08/18 01:15:45;;;;;;;11.73;8.60;;;;;;;16.99;97.40;101625.84;5024623;28;20108;-72
2023/08/18 01:18:13;;;;;;;12.98;8.68;;;;;;;16.94;97.54;101622.50;5007646;28;20099;-71
2023/08/18 01:20:42;;;;;;;10.80;8.77;;;;;;;16.92;97.93;101629.69;5023417;28;20072;-71
2023/08/18 01:23:09;;;;;;;10.90;8.80;;;;;;;16.89;98.26;101632.47;5024453;28;20360;-71
2023/08/18 01:25:38;;;;;;;9.18;8.25;;;;;;;16.88;97.48;101630.72;5007089;28;20045;-71
2023/08/18 01:28:06;;;;;;;10.30;9.02;;;;;;;16.89;98.32;101628.00;5007883;28;20387;-71
2023/08/18 01:30:45;;;;;;;11.18;9.48;;;;;;;16.85;98.38;101622.88;5024472;28;20133;-71
2023/08/18 01:33:27;;;;;;;11.90;9.50;;;;;;;16.81;98.68;101621.28;5024961;28;20049;-71
2023/08/18 01:36:05;;;;;;;10.85;9.00;;;;;;;16.83;98.66;101614.97;5006826;28;20056;-70
2023/08/18 01:38:34;;;;;;;11.27;9.77;;;;;;;16.79;98.57;101616.03;5004706;28;20180;-71
2023/08/18 01:41:05;;;;;;;10.90;9.40;;;;;;;16.81;98.75;101616.81;5006742;28;20045;-71
2023/08/18 01:43:33;;;;;;;11.02;9.90;;;;;;;16.79;98.78;101615.16;5006185;28;20147;-71
2023/08/18 01:46:03;;;;;;;10.98;9.63;;;;;;;16.77;98.98;101608.09;5024791;28;20544;-71
2023/08/18 01:48:30;;;;;;;11.68;9.98;;;;;;;16.77;98.98;101605.44;5016250;28;20041;-71
2023/08/18 01:50:57;;;;;;;11.85;9.27;;;;;;;16.76;99.18;101611.69;5022875;28;20049;-70
2023/08/18 01:53:25;;;;;;;11.52;9.68;;;;;;;16.77;99.28;101605.44;5023674;28;20046;-71
2023/08/18 01:55:52;;;;;;;10.85;8.93;;;;;;;16.74;99.03;101608.22;5016955;28;20357;-70
2023/08/18 01:58:19;;;;;;;11.55;10.07;;;;;;;16.75;99.51;101601.13;5007534;28;20103;-71
2023/08/18 02:00:46;;;;;;;12.00;10.10;;;;;;;16.73;99.08;101606.53;5010903;28;20432;-70
2023/08/18 02:03:13;;;;;;;15.95;9.63;;;;;;;16.75;99.01;101601.97;5023241;28;20465;-70
2023/08/18 02:05:42;;;;;;;10.18;9.07;;;;;;;16.75;99.26;101598.47;5024653;28;20045;-70
2023/08/18 02:08:09;;;;;;;13.05;9.38;;;;;;;16.76;99.11;101598.38;5024174;28;20049;-71
2023/08/18 02:10:36;;;;;;;10.63;9.43;;;;;;;16.71;99.46;101589.75;5024856;28;20048;-71
2023/08/18 02:13:04;;;;;;;12.65;10.07;;;;;;;16.70;99.25;101580.03;5007139;28;20052;-71
2023/08/18 02:15:31;;;;;;;11.50;10.07;;;;;;;16.69;99.62;101586.28;5023334;28;20397;-71
2023/08/18 02:17:58;;;;;;;12.70;9.82;;;;;;;16.68;100.00;101581.91;5024283;28;20273;-71
2023/08/18 02:20:25;;;;;;;11.90;10.13;;;;;;;16.70;99.29;101573.84;5024965;28;20110;-71
2023/08/18 02:22:52;;;;;;;11.80;10.25;;;;;;;16.68;99.56;101573.06;5021807;28;20201;-71
2023/08/18 02:25:21;;;;;;;12.40;10.32;;;;;;;16.66;99.36;101574.94;5024000;28;20175;-71
2023/08/18 02:27:48;;;;;;;11.10;9.90;;;;;;;16.67;99.76;101577.50;5007151;28;20520;-71
2023/08/18 02:30:16;;;;;;;12.40;9.95;;;;;;;16.67;99.40;101577.50;5007789;28;20111;-71
2023/08/18 02:32:44;;;;;;;12.73;10.55;;;;;;;16.67;99.36;101576.66;5024292;28;20049;-70
2023/08/18 02:35:11;;;;;;;12.27;10.13;;;;;;;16.63;100.00;101583.91;5024638;28;20043;-72
2023/08/18 02:37:39;;;;;;;13.75;10.82;;;;;;;16.64;99.85;101574.97;5005943;28;20053;-72
2023/08/18 02:40:08;;;;;;;14.75;11.35;;;;;;;16.61;100.00;101569.81;5017761;28;20366;-71
2023/08/18 02:42:35;;;;;;;13.15;10.73;;;;;;;16.63;99.97;101575.94;5006556;28;20060;-71
2023/08/18 02:45:03;;;;;;;12.40;11.10;;;;;;;16.63;100.00;101575.94;5024844;28;20045;-73
2023/08/18 02:47:30;;;;;;;12.18;10.82;;;;;;;16.65;100.00;101579.38;5022304;28;20041;-72
2023/08/18 02:49:58;;;;;;;14.80;11.30;;;;;;;16.66;99.65;101574.94;5022778;28;20054;-71
2023/08/18 02:52:25;;;;;;;12.07;10.25;;;;;;;16.66;99.87;101574.94;5024274;28;20498;-70
2023/08/18 02:54:53;;;;;;;13.75;11.35;;;;;;;16.64;99.83;101576.78;5005763;28;20472;-71
2023/08/18 02:57:20;;;;;;;13.30;11.85;;;;;;;16.61;100.00;101583.13;5006929;28;20069;-72
2023/08/18 02:59:47;;;;;;;14.45;11.48;;;;;;;16.61;100.00;101594.59;5006681;28;20484;-72
2023/08/18 03:02:14;;;;;;;14.07;11.77;;;;;;;16.61;100.00;101594.59;5007353;28;20046;-72
2023/08/18 03:04:41;;;;;;;13.73;11.93;;;;;;;16.62;100.00;101595.50;5003767;28;20034;-72
2023/08/18 03:07:09;;;;;;;13.85;11.85;;;;;;;16.61;100.00;101585.78;5007403;28;20070;-72
2023/08/18 03:09:36;;;;;;;16.33;12.50;;;;;;;16.64;100.00;101590.94;5006756;28;20045;-73
2023/08/18 03:12:03;;;;;;;14.77;12.13;;;;;;;16.67;100.00;101588.16;5022577;28;20045;-70
2023/08/18 03:14:30;;;;;;;16.75;11.98;;;;;;;16.63;99.89;101583.91;5000667;28;20038;-71
2023/08/18 03:16:58;;;;;;;13.48;11.45;;;;;;;16.60;100.00;101578.72;4988654;28;20046;-71
2023/08/18 03:19:25;;;;;;;15.70;12.20;;;;;;;16.60;100.00;101586.69;5001951;28;20108;-70
2023/08/18 03:21:52;;;;;;;14.70;12.00;;;;;;;16.58;100.00;101589.41;5007448;28;20053;-72
2023/08/18 03:24:19;;;;;;;15.82;12.13;;;;;;;16.61;100.00;101583.13;5007485;28;20058;-73
2023/08/18 03:26:46;;;;;;;16.52;12.77;;;;;;;16.59;100.00;101583.16;5005647;28;20038;-72
2023/08/18 03:29:13;;;;;;;15.82;12.40;;;;;;;16.61;100.00;101567.16;5022723;28;20046;-71
2023/08/18 03:31:41;;;;;;;15.27;12.20;;;;;;;16.57;100.00;101576.19;5021737;28;20267;-72
2023/08/18 03:34:08;;;;;;;15.93;12.32;;;;;;;16.58;100.00;101573.44;5020730;28;20323;-71
2023/08/18 03:36:35;;;;;;;18.73;12.32;;;;;;;16.58;100.00;101564.59;5022971;28;20042;-72
2023/08/18 03:39:02;;;;;;;18.70;13.45;;;;;;;16.56;100.00;101566.47;5004762;28;20420;-71
2023/08/18 03:41:29;;;;;;;18.40;13.27;;;;;;;16.52;100.00;101564.88;5022444;28;20045;-72
2023/08/18 03:43:58;;;;;;;18.65;14.65;;;;;;;16.56;100.00;101569.13;5006417;28;20685;-72
2023/08/18 03:46:26;;;;;;;17.67;13.65;;;;;;;16.51;100.00;101566.66;5021559;28;20045;-72
2023/08/18 03:48:56;;;;;;;20.27;14.60;;;;;;;16.51;100.00;101568.47;5001605;28;20121;-73
2023/08/18 03:51:23;;;;;;;20.25;15.35;;;;;;;16.48;100.00;101566.81;5002376;28;20362;-73
2023/08/18 03:53:51;;;;;;;20.67;15.73;;;;;;;16.43;100.00;101563.47;5001628;28;20381;-72
2023/08/18 03:56:18;;;;;;;19.08;14.63;;;;;;;16.44;100.00;101557.22;5004863;28;20157;-72
2023/08/18 03:58:45;;;;;;;20.25;15.73;;;;;;;16.44;100.00;101565.22;5007545;28;20050;-72
2023/08/18 04:01:14;;;;;;;19.58;15.15;;;;;;;16.41;100.00;101555.56;5007935;28;20059;-72
2023/08/18 04:03:43;;;;;;;20.25;15.32;;;;;;;16.42;100.00;101557.31;5007552;28;20407;-71
2023/08/18 04:06:14;;;;;;;20.73;15.38;;;;;;;16.42;100.00;101556.44;5003656;28;20395;-71
2023/08/18 04:08:44;;;;;;;19.80;14.52;;;;;;;16.46;100.00;101556.22;4985647;28;20106;-70
2023/08/18 04:11:12;;;;;;;19.00;14.35;;;;;;;16.46;100.00;101556.22;4989301;28;20046;-72
2023/08/18 04:13:39;;;;;;;21.30;16.35;;;;;;;16.42;100.00;101562.63;5006303;28;20045;-72
2023/08/18 04:16:07;;;;;;;20.65;15.77;;;;;;;16.43;100.00;101552.84;5005255;28;20045;-71
2023/08/18 04:18:36;;;;;;;23.33;15.90;;;;;;;16.40;100.00;101551.19;5004394;28;20056;-72
2023/08/18 04:21:03;;;;;;;23.08;16.70;;;;;;;16.40;100.00;101558.28;5020970;28;20042;-71
2023/08/18 04:23:31;;;;;;;20.10;15.55;;;;;;;16.38;100.00;101561.03;5021711;28;20049;-71
2023/08/18 04:25:58;;;;;;;24.05;17.48;;;;;;;16.39;100.00;101562.75;5006789;28;20044;-71
2023/08/18 04:28:26;;;;;;;20.80;16.58;;;;;;;16.40;100.00;101564.50;5007263;28;20068;-71
2023/08/18 04:30:53;;;;;;;21.48;16.50;;;;;;;16.43;100.00;101560.81;5005660;28;20057;-72
2023/08/18 04:33:30;;;;;;;20.42;15.80;;;;;;;16.48;100.00;101552.63;5003675;28;20090;-72
2023/08/18 04:35:58;;;;;;;22.52;16.63;;;;;;;16.46;100.00;101553.56;5005959;28;20049;-73
2023/08/18 04:38:29;;;;;;;22.45;16.67;;;;;;;16.45;100.00;101564.28;5005455;28;20124;-73
2023/08/18 04:41:02;;;;;;;23.33;16.60;;;;;;;16.45;100.00;101557.16;5004982;28;20123;-72
2023/08/18 04:43:31;;;;;;;23.90;16.45;;;;;;;16.45;100.00;101554.50;5004840;28;20124;-73
2023/08/18 04:45:58;;;;;;;26.48;17.00;;;;;;;16.46;100.00;101574.84;5004566;28;20089;-72
2023/08/18 04:48:26;;;;;;;23.70;17.33;;;;;;;16.45;100.00;101569.59;5003762;28;20107;-72
2023/08/18 04:50:53;;;;;;;23.15;16.00;;;;;;;16.48;100.00;101571.25;5003432;28;20069;-72
2023/08/18 04:53:21;;;;;;;22.27;16.00;;;;;;;16.49;100.00;101567.69;5003931;28;20051;-72
2023/08/18 04:55:48;;;;;;;21.05;15.90;;;;;;;16.50;100.00;101564.09;4998782;28;20068;-72
2023/08/18 04:58:15;;;;;;;22.63;17.00;;;;;;;16.52;100.00;101571.06;4986373;28;20414;-71
2023/08/18 05:00:42;;;;;;;22.33;16.67;;;;;;;16.53;100.00;101559.50;4985939;28;20521;-72
2023/08/18 05:03:11;;;;;;;22.73;16.45;;;;;;;16.52;100.00;101571.06;4989067;28;20565;-72
2023/08/18 05:06:07;;;;;;;26.20;17.52;;;;;;;16.55;100.00;101567.41;4983901;28;20074;-72
2023/08/18 05:08:37;;;;;;;22.70;17.15;;;;;;;16.53;100.00;101559.50;4965204;28;20492;-71
2023/08/18 05:11:11;;;;;;;23.13;17.33;;;;;;;16.56;100.00;101550.50;4969144;28;20105;-71
2023/08/18 05:13:42;;;;;;;21.52;16.80;;;;;;;16.55;100.00;101543.44;4985989;28;20410;-72
2023/08/18 05:16:09;;;;;;;24.08;18.25;;;;;;;16.55;100.00;101546.97;4985033;28;20042;-72
2023/08/18 05:18:36;;;;;;;22.58;18.02;;;;;;;16.55;100.00;101548.75;4985289;28;20046;-72
2023/08/18 05:21:04;;;;;;;23.92;18.15;;;;;;;16.56;100.00;101548.72;4985811;28;20466;-72
2023/08/18 05:23:31;;;;;;;21.42;17.13;;;;;;;16.58;100.00;101553.97;4986267;28;20121;-72
2023/08/18 05:25:59;;;;;;;24.33;18.00;;;;;;;16.59;100.00;101550.38;4984234;28;20034;-72
2023/08/18 05:28:28;;;;;;;24.15;18.40;;;;;;;16.63;100.00;101554.63;4985811;28;20072;-71
2023/08/18 05:30:56;;;;;;;23.08;16.88;;;;;;;16.68;100.00;101557.09;4985619;28;20439;-72
2023/08/18 05:33:23;;;;;;;24.90;18.05;;;;;;;16.67;100.00;101561.53;4985810;28;20067;-72
2023/08/18 05:35:50;;;;;;;21.63;17.58;;;;;;;16.67;100.00;101556.22;4984844;28;20402;-72
2023/08/18 05:38:17;;;;;;;22.52;17.08;;;;;;;16.69;100.00;101561.44;4985684;28;20046;-71
2023/08/18 05:40:48;;;;;;;24.13;17.58;;;;;;;16.71;100.00;101560.47;4984639;28;20068;-71
2023/08/18 05:43:18;;;;;;;21.88;17.23;;;;;;;16.71;100.00;101571.13;4987906;28;20046;-71
2023/08/18 05:45:48;;;;;;;21.83;15.70;;;;;;;16.72;100.00;101559.53;4984991;28;20458;-72
2023/08/18 05:48:15;;;;;;;23.27;17.63;;;;;;;16.67;100.00;101556.22;4984587;28;20046;-72
2023/08/18 05:50:42;;;;;;;24.35;18.00;;;;;;;16.67;100.00;101555.34;4984951;28;20069;-72
2023/08/18 05:53:09;;;;;;;26.77;18.90;;;;;;;16.65;100.00;101560.72;4966656;28;20047;-72
2023/08/18 05:55:36;;;;;;;25.90;19.30;;;;;;;16.64;100.00;101559.00;4972305;28;20143;-72
2023/08/18 05:58:04;;;;;;;27.45;19.70;;;;;;;16.66;100.00;101559.81;5023325;28;20049;-72
2023/08/18 06:00:32;;;;;;;26.67;18.20;;;;;;;16.74;100.00;101559.47;5024259;28;20049;-72
2023/08/18 06:02:59;;;;;;;26.67;18.55;;;;;;;16.74;100.00;101560.31;5024181;28;20300;-73
2023/08/18 06:05:28;;;;;;;27.00;19.10;;;;;;;16.70;100.00;101560.53;5007246;28;20047;-70
2023/08/18 06:07:56;;;;;;;26.60;19.85;;;;;;;16.73;100.00;101563.94;5024515;28;20045;-70
2023/08/18 06:10:24;;;;;;;31.73;20.20;;;;;;;16.81;100.00;101557.41;5023711;28;20049;-71
2023/08/18 06:12:51;;;;;;;25.05;19.05;;;;;;;16.79;100.00;101554.78;5024362;28;20127;-73
2023/08/18 06:15:20;;;;;;;28.02;19.98;;;;;;;16.74;100.00;101557.66;5024696;28;20053;-70
2023/08/18 06:17:49;;;;;;;28.15;19.92;;;;;;;16.75;100.00;101539.91;5024097;28;20065;-72
2023/08/18 06:20:16;;;;;;;27.80;18.83;;;;;;;16.80;100.00;101545.88;5023850;28;20046;-73
2023/08/18 06:22:43;;;;;;;24.70;18.60;;;;;;;16.85;100.00;101545.66;5024635;28;20124;-73
2023/08/18 06:25:11;;;;;;;27.38;19.15;;;;;;;16.90;100.00;101543.66;5024715;28;20496;-71
2023/08/18 06:27:39;;;;;;;23.63;17.80;;;;;;;16.97;100.00;101534.47;5024388;28;20422;-70
2023/08/18 06:30:07;;;;;;;23.20;17.50;;;;;;;17.04;100.00;101532.41;5025131;28;20216;-71
2023/08/18 06:32:34;;;;;;;23.60;17.60;;;;;;;17.04;100.00;101540.38;5028054;28;20071;-71
2023/08/18 06:35:01;;;;;;;24.88;17.88;;;;;;;17.08;100.00;101534.00;5027806;28;20041;-71
2023/08/18 06:37:28;;;;;;;26.92;17.88;;;;;;;17.10;100.00;101528.59;5027784;28;20045;-70
2023/08/18 06:39:56;;;;;;;23.88;16.40;;;;;;;17.11;100.00;101536.50;5027436;28;20037;-70
2023/08/18 06:42:23;;;;;;;24.17;17.58;;;;;;;17.14;100.00;101524.84;5026752;28;20095;-71
2023/08/18 06:44:50;;;;;;;25.23;17.45;;;;;;;17.18;100.00;101531.75;5026192;28;20449;-71
2023/08/18 06:47:17;;;;;;;25.92;17.85;;;;;;;17.21;100.00;101535.13;5030300;28;20045;-71
2023/08/18 06:49:44;;;;;;;24.00;17.90;;;;;;;17.22;100.00;101539.53;5027788;28;20046;-71
2023/08/18 06:52:12;;;;;;;23.98;18.52;;;;;;;17.27;100.00;101538.44;5028272;28;20124;-71
2023/08/18 06:54:39;;;;;;;22.13;17.20;;;;;;;17.30;100.00;101540.94;5027135;28;20048;-71
2023/08/18 06:57:07;;;;;;;21.85;16.98;;;;;;;17.35;100.00;101545.13;5026844;28;20049;-71
2023/08/18 06:59:35;;;;;;;24.52;17.48;;;;;;;17.36;100.00;101530.88;5026697;28;20507;-70
2023/08/18 07:02:03;;;;;;;23.77;17.30;;;;;;;17.40;100.00;101528.91;5030176;28;20037;-70
2023/08/18 07:04:30;;;;;;;23.42;17.88;;;;;;;17.41;100.00;101541.31;5027916;28;20124;-72
2023/08/18 07:06:57;;;;;;;22.73;17.85;;;;;;;17.47;100.00;101540.16;5009594;28;20045;-72
2023/08/18 07:09:24;;;;;;;22.85;16.92;;;;;;;17.53;100.00;101539.88;5026521;28;20505;-72
2023/08/18 07:11:51;;;;;;;22.48;16.58;;;;;;;17.58;100.00;101551.16;5026700;28;20150;-72
2023/08/18 07:14:18;;;;;;;24.80;17.67;;;;;;;17.61;100.00;101548.34;5024117;28;20103;-71
2023/08/18 07:16:46;;;;;;;22.35;17.48;;;;;;;17.62;100.00;101542.09;5026597;28;20107;-72
2023/08/18 07:19:13;;;;;;;25.45;17.48;;;;;;;17.65;100.00;101533.06;5027443;28;20045;-72
2023/08/18 07:21:40;;;;;;;21.50;16.88;;;;;;;17.68;100.00;101538.25;5026549;28;20494;-72
2023/08/18 07:24:07;;;;;;;25.38;18.95;;;;;;;17.68;99.99;101538.25;5027352;28;20567;-71
2023/08/18 07:26:34;;;;;;;23.85;17.50;;;;;;;17.65;100.00;101539.25;5025550;28;20425;-71
2023/08/18 07:29:04;;;;;;;24.45;16.45;;;;;;;17.69;100.00;101545.31;5026868;28;20041;-70
2023/08/18 07:31:32;;;;;;;23.02;17.13;;;;;;;17.74;100.00;101540.59;5027676;28;20091;-74
2023/08/18 07:33:59;;;;;;;22.83;16.95;;;;;;;17.76;100.00;101529.84;5026474;28;20045;-72
2023/08/18 07:36:26;;;;;;;21.08;16.83;;;;;;;17.80;99.89;101539.44;5025735;28;20041;-73
2023/08/18 07:38:53;;;;;;;19.65;16.50;;;;;;;17.83;99.85;101545.47;5026419;28;20057;-72
2023/08/18 07:41:20;;;;;;;20.25;16.52;;;;;;;17.86;99.66;101547.13;5024892;28;20116;-72
2023/08/18 07:43:47;;;;;;;20.65;16.48;;;;;;;17.87;99.14;101543.50;5026849;28;20056;-73
2023/08/18 07:46:14;;;;;;;19.75;15.85;;;;;;;17.86;99.32;101549.78;5024707;28;20042;-72
2023/08/18 07:48:44;;;;;;;20.15;17.15;;;;;;;17.87;98.96;101550.66;5024278;28;20049;-72
2023/08/18 07:51:11;;;;;;;18.63;15.43;;;;;;;17.89;99.14;101554.97;5024699;28;20115;-71
2023/08/18 07:53:38;;;;;;;21.08;15.85;;;;;;;17.92;99.23;101548.63;5026778;28;20052;-72
2023/08/18 07:56:05;;;;;;;21.77;17.60;;;;;;;17.97;99.33;101549.31;5027237;28;20060;-72
2023/08/18 07:58:32;;;;;;;20.08;16.25;;;;;;;18.00;98.69;101550.00;5029286;28;20132;-72
2023/08/18 08:00:59;;;;;;;21.67;17.00;;;;;;;18.04;98.31;101545.38;5025680;28;20537;-71
2023/08/18 08:03:26;;;;;;;18.48;15.05;;;;;;;18.11;98.94;101537.94;5028364;28;20051;-71
2023/08/18 08:05:54;;;;;;;20.23;14.90;;;;;;;18.20;98.36;101548.13;5026385;28;20052;-73
2023/08/18 08:08:21;;;;;;;16.80;14.07;;;;;;;18.21;97.85;101544.53;5026134;28;20045;-73
2023/08/18 08:10:48;;;;;;;17.67;15.70;;;;;;;18.25;97.75;101542.56;5027006;28;20056;-71
2023/08/18 08:13:15;;;;;;;17.48;14.45;;;;;;;18.28;97.92;101545.06;5026300;28;20048;-71
2023/08/18 08:15:45;;;;;;;16.10;13.57;;;;;;;18.37;97.56;101552.59;5025730;28;20049;-70
2023/08/18 08:18:15;;;;;;;14.15;12.35;;;;;;;18.43;96.46;101554.09;5026411;28;20045;-73
2023/08/18 08:20:43;;;;;;;14.48;12.75;;;;;;;18.43;96.59;101551.41;5021277;28;20072;-72
2023/08/18 08:23:11;;;;;;;16.30;12.98;;;;;;;18.53;96.27;101555.31;5024680;28;20440;-71
2023/08/18 08:25:40;;;;;;;14.57;12.05;;;;;;;18.59;95.13;101554.16;5026293;28;20112;-71
2023/08/18 08:28:07;;;;;;;14.77;12.50;;;;;;;18.58;95.55;101558.59;5026567;28;20662;-72
2023/08/18 08:30:34;;;;;;;14.13;11.85;;;;;;;18.66;95.21;101549.34;5026729;28;20062;-72
2023/08/18 08:33:04;;;;;;;13.48;11.07;;;;;;;18.72;94.79;101551.69;5026332;28;20421;-71
2023/08/18 08:35:32;;;;;;;14.93;12.60;;;;;;;18.71;94.83;101557.97;5026300;28;20513;-71
2023/08/18 08:38:00;;;;;;;15.93;12.23;;;;;;;18.74;94.66;101555.13;5028531;28;20050;-70
2023/08/18 08:40:27;;;;;;;15.30;12.15;;;;;;;18.76;94.72;101559.44;5026325;28;20045;-73
2023/08/18 08:42:56;;;;;;;14.30;11.15;;;;;;;18.82;94.23;101557.41;5025838;28;20045;-71
2023/08/18 08:45:33;;;;;;;16.58;12.93;;;;;;;18.84;93.94;101561.72;5025545;28;20033;-71
2023/08/18 08:48:07;;;;;;;15.80;13.00;;;;;;;18.83;94.52;101556.44;5009360;28;20054;-72
2023/08/18 08:50:44;;;;;;;15.73;12.88;;;;;;;18.88;94.27;101554.38;5026797;28;20466;-72
2023/08/18 08:53:14;;;;;;;16.33;13.77;;;;;;;18.89;93.97;101561.47;5021488;28;20049;-73
2023/08/18 08:55:45;;;;;;;16.40;13.55;;;;;;;18.95;92.65;101562.97;5023632;28;20085;-73
2023/08/18 08:58:13;;;;;;;16.42;13.05;;;;;;;18.85;92.88;101565.22;5024692;28;20045;-72
2023/08/18 09:00:41;;;;;;;17.85;14.48;;;;;;;18.76;94.26;101561.25;5026009;28;20041;-72
2023/08/18 09:03:09;;;;;;;15.43;13.65;;;;;;;18.81;93.57;101564.53;5026331;28;20127;-71
2023/08/18 09:05:37;;;;;;;18.80;12.48;;;;;;;18.80;94.64;101569.97;5028195;28;20055;-70
2023/08/18 09:08:04;;;;;;;14.90;12.75;;;;;;;18.83;94.69;101567.09;5024863;28;20477;-72
2023/08/18 09:10:33;;;;;;;17.10;13.68;;;;;;;18.90;95.32;101573.88;5023691;28;20124;-73
2023/08/18 09:13:00;;;;;;;15.13;13.05;;;;;;;19.01;95.09;101568.84;5023148;28;20049;-71
2023/08/18 09:15:28;;;;;;;14.90;12.45;;;;;;;19.15;94.13;101570.75;5024714;28;20128;-73
2023/08/18 09:17:56;;;;;;;15.13;12.27;;;;;;;19.18;93.28;101581.25;5026009;28;20427;-71
2023/08/18 09:20:23;;;;;;;14.85;12.60;;;;;;;19.22;92.71;101582.81;5024652;28;20448;-73
2023/08/18 09:22:57;;;;;;;15.27;12.48;;;;;;;19.19;92.08;101574.13;5025110;28;20407;-73
2023/08/18 09:25:25;;;;;;;15.68;12.05;;;;;;;19.18;92.71;101572.38;5024270;28;20875;-71
2023/08/18 09:27:54;;;;;;;17.65;13.65;;;;;;;19.21;91.26;101566.88;5024442;28;20038;-73
2023/08/18 09:30:23;;;;;;;15.88;12.30;;;;;;;19.17;91.91;101566.19;5024472;28;20132;-72
2023/08/18 09:32:51;;;;;;;17.15;13.10;;;;;;;19.20;92.43;101563.34;5024669;28;20059;-72
2023/08/18 09:35:22;;;;;;;16.83;12.82;;;;;;;19.23;92.27;101554.28;5006538;28;20052;-72
2023/08/18 09:37:55;;;;;;;16.10;13.20;;;;;;;19.28;92.32;101554.91;5024544;28;20041;-71
2023/08/18 09:40:24;;;;;;;15.90;13.43;;;;;;;19.38;92.85;101548.09;5024904;28;20089;-71
2023/08/18 09:42:51;;;;;;;19.02;13.57;;;;;;;19.51;92.45;101552.75;5024094;28;20088;-71
2023/08/18 09:45:26;;;;;;;18.83;13.52;;;;;;;19.64;91.22;101560.91;5023796;28;20413;-71
2023/08/18 09:47:55;;;;;;;16.25;12.93;;;;;;;19.69;91.04;101557.03;5013517;28;20060;-71
2023/08/18 09:50:30;;;;;;;17.95;14.25;;;;;;;19.70;90.85;101560.56;5015543;28;20052;-71
2023/08/18 09:53:00;;;;;;;16.27;12.95;;;;;;;19.72;91.87;101564.00;5024800;28;20463;-71
2023/08/18 09:55:42;;;;;;;16.67;13.18;;;;;;;19.86;91.79;101553.41;5024046;28;20041;-71
2023/08/18 09:58:32;;;;;;;17.10;12.88;;;;;;;20.11;91.92;101557.31;5006288;28;20041;-71
2023/08/18 10:00:59;;;;;;;15.25;12.07;;;;;;;20.30;89.80;101554.41;5026175;28;20045;-71
2023/08/18 10:03:30;;;;;;;14.40;12.07;;;;;;;20.37;89.32;101537.94;5024580;28;20046;-71
2023/08/18 10:06:00;;;;;;;13.88;11.95;;;;;;;20.46;88.33;101537.38;5007099;28;20042;-71
2023/08/18 10:08:27;;;;;;;14.38;11.50;;;;;;;20.55;87.35;101531.47;5008938;28;20066;-71
2023/08/18 10:10:54;;;;;;;15.30;12.10;;;;;;;20.62;87.12;101540.88;5024778;28;20502;-71
2023/08/18 10:13:23;;;;;;;14.85;12.50;;;;;;;20.69;85.28;101532.44;5027980;28;20049;-73
2023/08/18 10:15:52;;;;;;;15.57;12.13;;;;;;;20.66;85.66;101535.28;5029654;28;20052;-73
2023/08/18 10:18:21;;;;;;;14.88;12.23;;;;;;;20.68;85.95;101536.94;5028558;28;20071;-72
2023/08/18 10:20:50;;;;;;;15.75;12.88;;;;;;;20.68;86.25;101531.59;5027446;28;20048;-73
2023/08/18 10:23:18;;;;;;;17.42;12.48;;;;;;;20.74;86.32;101530.38;5028737;28;20419;-71
2023/08/18 10:25:50;;;;;;;17.27;12.70;;;;;;;20.81;86.34;101531.72;5009995;28;20045;-72
2023/08/18 10:28:19;;;;;;;15.30;12.75;;;;;;;20.87;84.75;101534.00;5027764;28;20044;-72
2023/08/18 10:30:56;;;;;;;14.68;12.13;;;;;;;20.94;84.39;101535.34;5027926;28;20045;-71
2023/08/18 10:33:31;;;;;;;14.57;12.02;;;;;;;20.93;83.79;101528.25;5027878;28;20041;-72
2023/08/18 10:36:02;;;;;;;15.82;11.32;;;;;;;20.94;84.62;101532.66;5030295;28;20055;-72
2023/08/18 10:38:32;;;;;;;18.85;13.05;;;;;;;21.03;84.51;101535.72;5008695;28;20505;-72
2023/08/18 10:40:59;;;;;;;14.63;12.00;;;;;;;21.21;83.71;101528.31;5007314;28;20045;-73
2023/08/18 10:43:28;;;;;;;13.68;11.85;;;;;;;21.38;84.08;101525.41;5027240;28;20048;-73
2023/08/18 10:46:00;;;;;;;16.90;12.07;;;;;;;21.57;83.46;101518.81;5009288;28;20045;-72
2023/08/18 10:48:30;;;;;;;14.23;11.63;;;;;;;21.70;82.46;101511.72;5029014;28;20052;-71
2023/08/18 10:50:58;;;;;;;17.33;11.98;;;;;;;21.77;81.63;101520.22;5028583;28;20057;-71
2023/08/18 10:53:25;;;;;;;15.15;12.07;;;;;;;21.88;81.34;101508.75;5010581;28;20071;-71
2023/08/18 10:55:55;;;;;;;14.60;11.88;;;;;;;21.95;80.83;101501.97;5025629;28;20049;-72
2023/08/18 10:58:22;;;;;;;15.65;12.10;;;;;;;22.05;80.97;101499.53;5026604;28;20509;-71
2023/08/18 11:00:50;;;;;;;16.38;11.48;;;;;;;22.21;80.85;101488.59;5030078;28;20076;-73
2023/08/18 11:03:19;;;;;;;17.23;11.63;;;;;;;22.35;80.75;101487.63;5028239;28;20515;-71
2023/08/18 11:05:46;;;;;;;16.45;11.68;;;;;;;22.49;78.21;101492.91;5027921;28;20573;-71
2023/08/18 11:08:14;;;;;;;15.65;12.07;;;;;;;22.42;78.63;101493.47;5027449;28;20049;-73
2023/08/18 11:10:42;;;;;;;15.95;11.25;;;;;;;22.46;78.83;101497.66;5024976;28;20395;-72
2023/08/18 11:13:23;;;;;;;14.07;10.90;;;;;;;22.55;79.94;101494.31;5027595;28;20107;-71
2023/08/18 11:15:55;;;;;;;14.15;11.00;;;;;;;22.61;79.39;101488.50;5023092;28;20041;-71